sensor_id;sensor_type;location;lat;lon;timestamp;pressure;altitude;pressure_sealevel;temperature;humidity
15050;BME280;7622;42.724;23.250;2024-03-25T00:00:32;93414.78;;;3.88;100.00
15050;BME280;7622;42.724;23.250;2024-03-25T00:02:59;93428.69;;;3.76;100.00
15050;BME280;7622;42.724;23.250;2024-03-25T00:05:26;93426.97;;;3.86;100.00
15050;BME280;7622;42.724;23.250;2024-03-25T00:07:52;93389.63;;;3.63;100.00
15050;BME280;7622;42.724;23.250;2024-03-25T00:10:20;93405.03;;;3.63;100.00
15050;BME280;7622;42.724;23.250;2024-03-25T00:12:46;93403.72;;;3.78;100.00
15050;BME280;7622;42.724;23.250;2024-03-25T00:15:18;93399.38;;;3.69;100.00
15050;BME280;7622;42.724;23.250;2024-03-25T00:17:45;93395.72;;;3.52;100.00
15050;BME280;7622;42.724;23.250;2024-03-25T00:20:12;93393.53;;;3.47;100.00
15050;BME280;7622;42.724;23.250;2024-03-25T00:22:38;93387.19;;;3.51;100.00
15050;BME280;7622;42.724;23.250;2024-03-25T00:25:05;93379.94;;;3.66;100.00
15050;BME280;7622;42.724;23.250;2024-03-25T00:27:32;93379.91;;;3.76;100.00
15050;BME280;7622;42.724;23.250;2024-03-25T00:29:59;93374.50;;;3.98;100.00
15050;BME280;7622;42.724;23.250;2024-03-25T00:32:25;93371.94;;;4.17;100.00
15050;BME280;7622;42.724;23.250;2024-03-25T00:34:51;93360.03;;;4.16;100.00
15050;BME280;7622;42.724;23.250;2024-03-25T00:37:17;93373.81;;;4.15;100.00
15050;BME280;7622;42.724;23.250;2024-03-25T00:39:44;93367.34;;;4.11;100.00
15050;BME280;7622;42.724;23.250;2024-03-25T00:42:10;93375.03;;;4.02;100.00
15050;BME280;7622;42.724;23.250;2024-03-25T00:44:39;93381.13;;;4.10;100.00
15050;BME280;7622;42.724;23.250;2024-03-25T00:47:04;93382.06;;;4.09;100.00
15050;BME280;7622;42.724;23.250;2024-03-25T00:49:31;93376.13;;;4.18;100.00
15050;BME280;7622;42.724;23.250;2024-03-25T00:51:57;93376.94;;;4.28;100.00
15050;BME280;7622;42.724;23.250;2024-03-25T00:54:23;93363.91;;;4.40;100.00
15050;BME280;7622;42.724;23.250;2024-03-25T00:56:49;93351.44;;;4.45;100.00
15050;BME280;7622;42.724;23.250;2024-03-25T00:59:16;93348.16;;;4.62;100.00
15050;BME280;7622;42.724;23.250;2024-03-25T01:01:43;93353.19;;;4.54;100.00
15050;BME280;7622;42.724;23.250;2024-03-25T01:04:10;93350.44;;;4.65;100.00
15050;BME280;7622;42.724;23.250;2024-03-25T01:06:36;93342.47;;;4.68;100.00
15050;BME280;7622;42.724;23.250;2024-03-25T01:09:03;93341.63;;;4.77;100.00
15050;BME280;7622;42.724;23.250;2024-03-25T01:11:29;93335.59;;;4.86;100.00
15050;BME280;7622;42.724;23.250;2024-03-25T01:13:56;93324.94;;;4.81;100.00
15050;BME280;7622;42.724;23.250;2024-03-25T01:16:22;93319.00;;;5.08;100.00
15050;BME280;7622;42.724;23.250;2024-03-25T01:18:50;93318.25;;;4.98;100.00
15050;BME280;7622;42.724;23.250;2024-03-25T01:21:16;93324.75;;;4.92;100.00
15050;BME280;7622;42.724;23.250;2024-03-25T01:23:42;93314.19;;;4.95;100.00
15050;BME280;7622;42.724;23.250;2024-03-25T01:26:08;93318.03;;;5.09;100.00
15050;BME280;7622;42.724;23.250;2024-03-25T01:28:35;93324.22;;;4.89;100.00
15050;BME280;7622;42.724;23.250;2024-03-25T01:31:01;93325.84;;;4.90;100.00
15050;BME280;7622;42.724;23.250;2024-03-25T01:33:27;93313.72;;;4.82;100.00
15050;BME280;7622;42.724;23.250;2024-03-25T01:35:54;93328.25;;;4.91;100.00
15050;BME280;7622;42.724;23.250;2024-03-25T01:38:21;93267.88;;;4.68;100.00
15050;BME280;7622;42.724;23.250;2024-03-25T01:40:47;93347.19;;;5.00;100.00
15050;BME280;7622;42.724;23.250;2024-03-25T01:43:14;93350.47;;;4.92;100.00
15050;BME280;7622;42.724;23.250;2024-03-25T01:45:41;93366.53;;;4.77;100.00
15050;BME280;7622;42.724;23.250;2024-03-25T01:48:08;93357.22;;;4.66;100.00
15050;BME280;7622;42.724;23.250;2024-03-25T01:50:37;93342.63;;;4.57;100.00
15050;BME280;7622;42.724;23.250;2024-03-25T01:53:05;93354.41;;;4.50;100.00
15050;BME280;7622;42.724;23.250;2024-03-25T01:55:34;93356.31;;;4.48;100.00
15050;BME280;7622;42.724;23.250;2024-03-25T01:58:02;93334.50;;;4.15;100.00
15050;BME280;7622;42.724;23.250;2024-03-25T02:00:28;93370.00;;;4.29;100.00
15050;BME280;7622;42.724;23.250;2024-03-25T02:02:55;93369.66;;;4.14;100.00
15050;BME280;7622;42.724;23.250;2024-03-25T02:05:21;93379.66;;;4.08;100.00
15050;BME280;7622;42.724;23.250;2024-03-25T02:07:48;93386.97;;;3.93;100.00
15050;BME280;7622;42.724;23.250;2024-03-25T02:10:16;93378.44;;;3.73;100.00
15050;BME280;7622;42.724;23.250;2024-03-25T02:12:43;93377.06;;;3.69;100.00
15050;BME280;7622;42.724;23.250;2024-03-25T02:15:10;93380.31;;;3.81;100.00
15050;BME280;7622;42.724;23.250;2024-03-25T02:17:38;93381.25;;;3.70;100.00
15050;BME280;7622;42.724;23.250;2024-03-25T02:20:05;93370.72;;;3.64;100.00
15050;BME280;7622;42.724;23.250;2024-03-25T02:22:33;93364.75;;;3.53;100.00
15050;BME280;7622;42.724;23.250;2024-03-25T02:24:59;93367.75;;;3.59;100.00
15050;BME280;7622;42.724;23.250;2024-03-25T02:27:28;93360.06;;;3.59;100.00
15050;BME280;7622;42.724;23.250;2024-03-25T02:30:01;93368.84;;;3.66;100.00
15050;BME280;7622;42.724;23.250;2024-03-25T02:32:28;93367.38;;;3.73;100.00
15050;BME280;7622;42.724;23.250;2024-03-25T02:34:55;93375.06;;;3.73;100.00
15050;BME280;7622;42.724;23.250;2024-03-25T02:37:22;93372.34;;;3.84;100.00
15050;BME280;7622;42.724;23.250;2024-03-25T02:39:48;93381.81;;;3.93;100.00
15050;BME280;7622;42.724;23.250;2024-03-25T02:42:15;93378.97;;;3.96;100.00
15050;BME280;7622;42.724;23.250;2024-03-25T02:44:42;93380.44;;;4.08;100.00
15050;BME280;7622;42.724;23.250;2024-03-25T02:47:10;93374.78;;;4.14;100.00
15050;BME280;7622;42.724;23.250;2024-03-25T02:49:37;93387.75;;;4.13;100.00
15050;BME280;7622;42.724;23.250;2024-03-25T02:52:04;93386.00;;;4.13;100.00
15050;BME280;7622;42.724;23.250;2024-03-25T02:54:30;93394.50;;;3.94;100.00
15050;BME280;7622;42.724;23.250;2024-03-25T02:56:56;93398.56;;;3.97;100.00
15050;BME280;7622;42.724;23.250;2024-03-25T02:59:22;93395.06;;;3.88;100.00
15050;BME280;7622;42.724;23.250;2024-03-25T03:01:50;93392.63;;;4.06;100.00
15050;BME280;7622;42.724;23.250;2024-03-25T03:04:16;93403.56;;;4.18;100.00
15050;BME280;7622;42.724;23.250;2024-03-25T03:06:43;93397.22;;;4.12;100.00
15050;BME280;7622;42.724;23.250;2024-03-25T03:09:08;93395.34;;;4.14;100.00
15050;BME280;7622;42.724;23.250;2024-03-25T03:11:35;93401.69;;;4.20;100.00
15050;BME280;7622;42.724;23.250;2024-03-25T03:14:01;93400.75;;;4.11;100.00
15050;BME280;7622;42.724;23.250;2024-03-25T03:16:28;93398.72;;;4.15;100.00
15050;BME280;7622;42.724;23.250;2024-03-25T03:18:56;93389.78;;;4.28;100.00
15050;BME280;7622;42.724;23.250;2024-03-25T03:21:22;93388.53;;;4.32;100.00
15050;BME280;7622;42.724;23.250;2024-03-25T03:23:48;93392.63;;;4.35;100.00
15050;BME280;7622;42.724;23.250;2024-03-25T03:26:15;93399.91;;;4.40;100.00
15050;BME280;7622;42.724;23.250;2024-03-25T03:28:41;93416.13;;;4.40;100.00
15050;BME280;7622;42.724;23.250;2024-03-25T03:31:07;93425.31;;;4.43;100.00
15050;BME280;7622;42.724;23.250;2024-03-25T03:33:33;93425.03;;;4.46;100.00
15050;BME280;7622;42.724;23.250;2024-03-25T03:36:01;93418.03;;;4.48;100.00
15050;BME280;7622;42.724;23.250;2024-03-25T03:38:27;93415.56;;;4.56;100.00
15050;BME280;7622;42.724;23.250;2024-03-25T03:40:57;93419.78;;;4.47;100.00
15050;BME280;7622;42.724;23.250;2024-03-25T03:43:24;93436.91;;;4.75;100.00
15050;BME280;7622;42.724;23.250;2024-03-25T03:45:50;93430.75;;;4.49;100.00
15050;BME280;7622;42.724;23.250;2024-03-25T03:48:17;93425.34;;;4.33;100.00
15050;BME280;7622;42.724;23.250;2024-03-25T03:50:43;93431.94;;;4.45;100.00
15050;BME280;7622;42.724;23.250;2024-03-25T03:53:11;93413.72;;;4.19;100.00
15050;BME280;7622;42.724;23.250;2024-03-25T03:55:37;93413.97;;;4.26;100.00
15050;BME280;7622;42.724;23.250;2024-03-25T03:58:05;93416.69;;;4.24;100.00
15050;BME280;7622;42.724;23.250;2024-03-25T04:00:33;93429.28;;;4.27;100.00
15050;BME280;7622;42.724;23.250;2024-03-25T04:03:00;93441.00;;;4.30;100.00
15050;BME280;7622;42.724;23.250;2024-03-25T04:05:28;93448.34;;;4.34;100.00
15050;BME280;7622;42.724;23.250;2024-03-25T04:07:55;93453.06;;;4.39;100.00
15050;BME280;7622;42.724;23.250;2024-03-25T04:10:26;93462.91;;;4.44;100.00
15050;BME280;7622;42.724;23.250;2024-03-25T04:12:53;93461.44;;;4.31;100.00
15050;BME280;7622;42.724;23.250;2024-03-25T04:15:19;93455.88;;;4.36;100.00
15050;BME280;7622;42.724;23.250;2024-03-25T04:17:46;93447.78;;;4.31;100.00
15050;BME280;7622;42.724;23.250;2024-03-25T04:20:14;93455.63;;;4.29;100.00
15050;BME280;7622;42.724;23.250;2024-03-25T04:22:41;93463.34;;;4.29;100.00
15050;BME280;7622;42.724;23.250;2024-03-25T04:25:08;93471.88;;;4.40;100.00
15050;BME280;7622;42.724;23.250;2024-03-25T04:27:37;93470.63;;;4.44;100.00
15050;BME280;7622;42.724;23.250;2024-03-25T04:30:04;93470.25;;;4.39;100.00
15050;BME280;7622;42.724;23.250;2024-03-25T04:32:32;93467.53;;;4.40;100.00
15050;BME280;7622;42.724;23.250;2024-03-25T04:34:58;93452.66;;;4.24;100.00
15050;BME280;7622;42.724;23.250;2024-03-25T04:37:25;93488.38;;;4.47;100.00
15050;BME280;7622;42.724;23.250;2024-03-25T04:39:51;93502.31;;;4.54;100.00
15050;BME280;7622;42.724;23.250;2024-03-25T04:42:17;93508.94;;;4.47;100.00
15050;BME280;7622;42.724;23.250;2024-03-25T04:44:44;93522.19;;;4.42;100.00
15050;BME280;7622;42.724;23.250;2024-03-25T04:47:10;93517.59;;;4.55;100.00
15050;BME280;7622;42.724;23.250;2024-03-25T04:49:35;93517.72;;;4.54;100.00
15050;BME280;7622;42.724;23.250;2024-03-25T04:52:01;93526.22;;;4.64;100.00
15050;BME280;7622;42.724;23.250;2024-03-25T04:54:27;93527.31;;;4.81;100.00
15050;BME280;7622;42.724;23.250;2024-03-25T04:56:53;93530.84;;;4.80;100.00
15050;BME280;7622;42.724;23.250;2024-03-25T04:59:18;93528.41;;;4.78;100.00
15050;BME280;7622;42.724;23.250;2024-03-25T05:01:45;93521.91;;;4.84;100.00
15050;BME280;7622;42.724;23.250;2024-03-25T05:04:11;93523.25;;;4.78;100.00
15050;BME280;7622;42.724;23.250;2024-03-25T05:06:37;93521.50;;;4.79;100.00
15050;BME280;7622;42.724;23.250;2024-03-25T05:09:02;93531.34;;;4.93;100.00
15050;BME280;7622;42.724;23.250;2024-03-25T05:11:28;93521.75;;;4.85;100.00
15050;BME280;7622;42.724;23.250;2024-03-25T05:13:54;93527.03;;;5.03;100.00
15050;BME280;7622;42.724;23.250;2024-03-25T05:16:20;93524.31;;;5.04;100.00
15050;BME280;7622;42.724;23.250;2024-03-25T05:18:47;93530.41;;;4.84;100.00
15050;BME280;7622;42.724;23.250;2024-03-25T05:21:12;93534.22;;;4.90;100.00
15050;BME280;7622;42.724;23.250;2024-03-25T05:23:38;93533.63;;;5.05;100.00
15050;BME280;7622;42.724;23.250;2024-03-25T05:26:04;93538.09;;;5.13;100.00
15050;BME280;7622;42.724;23.250;2024-03-25T05:28:29;93534.06;;;5.01;100.00
15050;BME280;7622;42.724;23.250;2024-03-25T05:30:55;93555.16;;;5.14;100.00
15050;BME280;7622;42.724;23.250;2024-03-25T05:33:21;93542.75;;;4.90;100.00
15050;BME280;7622;42.724;23.250;2024-03-25T05:35:48;93561.81;;;5.07;100.00
15050;BME280;7622;42.724;23.250;2024-03-25T05:38:14;93556.53;;;5.08;100.00
15050;BME280;7622;42.724;23.250;2024-03-25T05:40:39;93546.25;;;5.08;100.00
15050;BME280;7622;42.724;23.250;2024-03-25T05:43:05;93554.22;;;5.05;100.00
15050;BME280;7622;42.724;23.250;2024-03-25T05:45:31;93553.53;;;5.23;100.00
15050;BME280;7622;42.724;23.250;2024-03-25T05:47:56;93562.59;;;5.27;100.00
15050;BME280;7622;42.724;23.250;2024-03-25T05:50:22;93561.38;;;5.31;100.00
15050;BME280;7622;42.724;23.250;2024-03-25T05:52:49;93574.91;;;5.79;100.00
15050;BME280;7622;42.724;23.250;2024-03-25T05:55:15;93568.38;;;6.22;100.00
15050;BME280;7622;42.724;23.250;2024-03-25T05:57:41;93572.78;;;6.57;100.00
15050;BME280;7622;42.724;23.250;2024-03-25T06:00:08;93581.69;;;6.62;100.00
15050;BME280;7622;42.724;23.250;2024-03-25T06:02:34;93580.84;;;6.44;100.00
15050;BME280;7622;42.724;23.250;2024-03-25T06:04:59;93583.75;;;6.77;100.00
15050;BME280;7622;42.724;23.250;2024-03-25T06:07:25;93586.31;;;6.94;100.00
15050;BME280;7622;42.724;23.250;2024-03-25T06:09:52;93564.16;;;7.27;100.00
15050;BME280;7622;42.724;23.250;2024-03-25T06:12:18;93600.28;;;7.71;100.00
15050;BME280;7622;42.724;23.250;2024-03-25T06:14:43;93602.81;;;7.63;100.00
15050;BME280;7622;42.724;23.250;2024-03-25T06:17:09;93605.06;;;7.83;100.00
15050;BME280;7622;42.724;23.250;2024-03-25T06:19:35;93609.81;;;7.96;100.00
15050;BME280;7622;42.724;23.250;2024-03-25T06:22:01;93600.03;;;7.82;100.00
15050;BME280;7622;42.724;23.250;2024-03-25T06:24:26;93609.59;;;8.15;100.00
15050;BME280;7622;42.724;23.250;2024-03-25T06:26:53;93605.75;;;7.68;100.00
15050;BME280;7622;42.724;23.250;2024-03-25T06:29:19;93605.00;;;7.49;100.00
15050;BME280;7622;42.724;23.250;2024-03-25T06:31:45;93606.66;;;7.15;100.00
15050;BME280;7622;42.724;23.250;2024-03-25T06:34:29;93609.09;;;6.99;100.00
15050;BME280;7622;42.724;23.250;2024-03-25T06:36:55;93608.88;;;6.92;100.00
15050;BME280;7622;42.724;23.250;2024-03-25T06:39:20;93604.47;;;7.02;100.00
15050;BME280;7622;42.724;23.250;2024-03-25T06:41:47;93603.41;;;6.60;100.00
15050;BME280;7622;42.724;23.250;2024-03-25T06:44:14;93614.84;;;6.93;100.00
15050;BME280;7622;42.724;23.250;2024-03-25T06:46:39;93626.94;;;7.28;100.00
15050;BME280;7622;42.724;23.250;2024-03-25T06:49:05;93638.09;;;7.72;100.00
15050;BME280;7622;42.724;23.250;2024-03-25T06:51:31;93641.00;;;7.95;100.00
15050;BME280;7622;42.724;23.250;2024-03-25T06:53:56;93637.47;;;8.29;100.00
15050;BME280;7622;42.724;23.250;2024-03-25T06:56:22;93635.69;;;8.64;100.00
15050;BME280;7622;42.724;23.250;2024-03-25T06:58:48;93653.78;;;9.30;100.00
15050;BME280;7622;42.724;23.250;2024-03-25T07:01:15;93655.06;;;9.18;100.00
15050;BME280;7622;42.724;23.250;2024-03-25T07:03:41;93651.31;;;8.96;100.00
15050;BME280;7622;42.724;23.250;2024-03-25T07:06:06;93649.38;;;9.06;100.00
15050;BME280;7622;42.724;23.250;2024-03-25T07:08:32;93656.72;;;9.68;100.00
15050;BME280;7622;42.724;23.250;2024-03-25T07:10:58;93660.72;;;10.03;100.00
15050;BME280;7622;42.724;23.250;2024-03-25T07:13:24;93665.63;;;9.81;100.00
15050;BME280;7622;42.724;23.250;2024-03-25T07:15:50;93661.81;;;10.33;100.00
15050;BME280;7622;42.724;23.250;2024-03-25T07:18:17;93670.69;;;10.54;100.00
15050;BME280;7622;42.724;23.250;2024-03-25T07:20:44;93675.84;;;10.62;98.21
15050;BME280;7622;42.724;23.250;2024-03-25T07:23:10;93639.94;;;10.74;90.92
15050;BME280;7622;42.724;23.250;2024-03-25T07:25:36;93679.75;;;10.97;89.09
15050;BME280;7622;42.724;23.250;2024-03-25T07:28:02;93691.06;;;10.74;89.63
15050;BME280;7622;42.724;23.250;2024-03-25T07:30:28;93687.00;;;9.92;100.00
15050;BME280;7622;42.724;23.250;2024-03-25T07:32:54;93681.97;;;10.22;100.00
15050;BME280;7622;42.724;23.250;2024-03-25T07:35:21;93681.97;;;9.98;98.71
15050;BME280;7622;42.724;23.250;2024-03-25T07:37:47;93676.63;;;9.75;100.00
15050;BME280;7622;42.724;23.250;2024-03-25T07:40:12;93684.41;;;9.83;100.00
15050;BME280;7622;42.724;23.250;2024-03-25T07:42:39;93678.25;;;10.01;92.32
15050;BME280;7622;42.724;23.250;2024-03-25T07:45:05;93680.81;;;10.17;95.51
15050;BME280;7622;42.724;23.250;2024-03-25T07:47:31;93684.41;;;9.75;97.25
15050;BME280;7622;42.724;23.250;2024-03-25T07:49:57;93680.53;;;9.63;97.30
15050;BME280;7622;42.724;23.250;2024-03-25T07:52:25;93676.94;;;9.32;100.00
15050;BME280;7622;42.724;23.250;2024-03-25T07:54:50;93681.50;;;9.46;100.00
15050;BME280;7622;42.724;23.250;2024-03-25T07:57:16;93691.53;;;9.33;100.00
15050;BME280;7622;42.724;23.250;2024-03-25T07:59:42;93693.81;;;9.52;96.45
15050;BME280;7622;42.724;23.250;2024-03-25T08:02:08;93696.06;;;9.55;96.75
15050;BME280;7622;42.724;23.250;2024-03-25T08:04:33;93698.03;;;9.77;91.41
15050;BME280;7622;42.724;23.250;2024-03-25T08:06:59;93700.28;;;9.48;92.12
15050;BME280;7622;42.724;23.250;2024-03-25T08:09:26;93701.59;;;9.60;93.64
15050;BME280;7622;42.724;23.250;2024-03-25T08:11:52;93698.50;;;9.97;88.59
15050;BME280;7622;42.724;23.250;2024-03-25T08:14:17;93702.22;;;10.35;79.22
15050;BME280;7622;42.724;23.250;2024-03-25T08:16:43;93708.00;;;10.61;74.91
15050;BME280;7622;42.724;23.250;2024-03-25T08:19:09;93719.56;;;10.98;74.66
15050;BME280;7622;42.724;23.250;2024-03-25T08:21:34;93714.00;;;11.01;74.18
15050;BME280;7622;42.724;23.250;2024-03-25T08:24:00;93721.78;;;11.01;77.12
15050;BME280;7622;42.724;23.250;2024-03-25T08:26:27;93720.28;;;10.68;71.69
15050;BME280;7622;42.724;23.250;2024-03-25T08:28:53;93719.94;;;11.18;69.20
15050;BME280;7622;42.724;23.250;2024-03-25T08:31:19;93726.03;;;11.56;67.51
15050;BME280;7622;42.724;23.250;2024-03-25T08:33:44;93732.00;;;11.95;64.34
15050;BME280;7622;42.724;23.250;2024-03-25T08:36:10;93736.66;;;11.77;64.01
15050;BME280;7622;42.724;23.250;2024-03-25T08:38:36;93733.53;;;10.89;65.70
15050;BME280;7622;42.724;23.250;2024-03-25T08:41:02;93728.75;;;10.61;69.39
15050;BME280;7622;42.724;23.250;2024-03-25T08:43:29;93723.59;;;10.53;73.09
15050;BME280;7622;42.724;23.250;2024-03-25T08:45:56;93721.53;;;10.24;70.56
15050;BME280;7622;42.724;23.250;2024-03-25T08:48:24;93728.50;;;10.32;70.38
15050;BME280;7622;42.724;23.250;2024-03-25T08:50:51;93734.09;;;11.07;67.30
15050;BME280;7622;42.724;23.250;2024-03-25T08:53:19;93727.09;;;11.47;67.19
15050;BME280;7622;42.724;23.250;2024-03-25T08:55:45;93728.56;;;11.72;64.75
15050;BME280;7622;42.724;23.250;2024-03-25T08:58:12;93725.59;;;10.90;69.94
15050;BME280;7622;42.724;23.250;2024-03-25T09:00:39;93732.97;;;10.62;71.05
15050;BME280;7622;42.724;23.250;2024-03-25T09:03:05;93728.78;;;10.45;72.00
15050;BME280;7622;42.724;23.250;2024-03-25T09:05:31;93719.38;;;11.30;69.55
15050;BME280;7622;42.724;23.250;2024-03-25T09:07:56;93718.78;;;11.20;67.17
15050;BME280;7622;42.724;23.250;2024-03-25T09:10:22;93737.75;;;10.18;68.95
15050;BME280;7622;42.724;23.250;2024-03-25T09:13:06;93733.34;;;10.03;72.88
15050;BME280;7622;42.724;23.250;2024-03-25T09:15:32;93722.69;;;9.81;82.70
15050;BME280;7622;42.724;23.250;2024-03-25T09:17:59;93737.34;;;9.40;87.25
15050;BME280;7622;42.724;23.250;2024-03-25T09:20:25;93741.38;;;9.27;95.09
15050;BME280;7622;42.724;23.250;2024-03-25T09:22:51;93744.59;;;9.13;92.39
15050;BME280;7622;42.724;23.250;2024-03-25T09:25:16;93749.19;;;8.93;100.00
15050;BME280;7622;42.724;23.250;2024-03-25T09:27:45;93751.53;;;9.04;100.00
15050;BME280;7622;42.724;23.250;2024-03-25T09:30:12;93748.78;;;8.72;100.00
15050;BME280;7622;42.724;23.250;2024-03-25T09:32:38;93737.88;;;8.60;100.00
15050;BME280;7622;42.724;23.250;2024-03-25T09:35:05;93745.00;;;8.58;99.38
15050;BME280;7622;42.724;23.250;2024-03-25T09:37:31;93748.19;;;8.52;99.43
15050;BME280;7622;42.724;23.250;2024-03-25T09:39:57;93750.25;;;8.74;99.24
15050;BME280;7622;42.724;23.250;2024-03-25T09:42:26;93716.38;;;8.59;96.48
15050;BME280;7622;42.724;23.250;2024-03-25T09:44:53;93750.00;;;8.93;94.23
15050;BME280;7622;42.724;23.250;2024-03-25T09:47:20;93746.47;;;8.94;92.67
15050;BME280;7622;42.724;23.250;2024-03-25T09:49:46;93753.03;;;9.23;92.95
15050;BME280;7622;42.724;23.250;2024-03-25T09:52:14;93742.47;;;9.08;95.47
15050;BME280;7622;42.724;23.250;2024-03-25T09:54:40;93744.66;;;9.45;84.83
15050;BME280;7622;42.724;23.250;2024-03-25T09:57:06;93738.06;;;9.83;75.92
15050;BME280;7622;42.724;23.250;2024-03-25T09:59:32;93738.06;;;10.95;69.92
15050;BME280;7622;42.724;23.250;2024-03-25T10:01:58;93747.34;;;11.20;65.03
15050;BME280;7622;42.724;23.250;2024-03-25T10:04:25;93750.31;;;11.17;64.80
15050;BME280;7622;42.724;23.250;2024-03-25T10:06:50;93750.25;;;10.86;65.94
15050;BME280;7622;42.724;23.250;2024-03-25T10:09:22;93747.00;;;10.29;67.86
15050;BME280;7622;42.724;23.250;2024-03-25T10:11:50;93748.28;;;10.25;68.12
15050;BME280;7622;42.724;23.250;2024-03-25T10:14:18;93744.69;;;10.10;69.16
15050;BME280;7622;42.724;23.250;2024-03-25T10:16:45;93746.97;;;10.45;68.45
15050;BME280;7622;42.724;23.250;2024-03-25T10:19:11;93757.03;;;10.40;67.58
15050;BME280;7622;42.724;23.250;2024-03-25T10:21:36;93749.09;;;10.25;66.96
15050;BME280;7622;42.724;23.250;2024-03-25T10:24:04;93738.56;;;9.95;64.50
15050;BME280;7622;42.724;23.250;2024-03-25T10:26:32;93737.56;;;10.04;64.56
15050;BME280;7622;42.724;23.250;2024-03-25T10:29:00;93744.06;;;9.92;66.57
15050;BME280;7622;42.724;23.250;2024-03-25T10:31:26;93747.28;;;9.69;66.54
15050;BME280;7622;42.724;23.250;2024-03-25T10:33:52;93746.63;;;9.59;65.12
15050;BME280;7622;42.724;23.250;2024-03-25T10:36:19;93743.59;;;9.88;62.87
15050;BME280;7622;42.724;23.250;2024-03-25T10:38:48;93731.09;;;9.92;61.69
15050;BME280;7622;42.724;23.250;2024-03-25T10:41:17;93737.06;;;9.76;62.30
15050;BME280;7622;42.724;23.250;2024-03-25T10:43:47;93738.72;;;10.17;64.12
15050;BME280;7622;42.724;23.250;2024-03-25T10:46:18;93743.22;;;10.64;61.25
15050;BME280;7622;42.724;23.250;2024-03-25T10:48:52;93743.59;;;10.37;59.86
15050;BME280;7622;42.724;23.250;2024-03-25T10:51:21;93734.66;;;9.82;61.55
15050;BME280;7622;42.724;23.250;2024-03-25T10:53:48;93745.69;;;9.93;63.86
15050;BME280;7622;42.724;23.250;2024-03-25T10:56:16;93747.81;;;10.21;64.94
15050;BME280;7622;42.724;23.250;2024-03-25T10:58:42;93747.06;;;10.76;62.40
15050;BME280;7622;42.724;23.250;2024-03-25T11:01:10;93745.63;;;11.43;60.67
15050;BME280;7622;42.724;23.250;2024-03-25T11:03:36;93748.13;;;11.91;59.38
15050;BME280;7622;42.724;23.250;2024-03-25T11:06:03;93754.25;;;11.75;58.14
15050;BME280;7622;42.724;23.250;2024-03-25T11:08:31;93738.03;;;12.10;57.57
15050;BME280;7622;42.724;23.250;2024-03-25T11:10:57;93737.16;;;11.72;60.82
15050;BME280;7622;42.724;23.250;2024-03-25T11:13:23;93748.41;;;11.42;60.28
15050;BME280;7622;42.724;23.250;2024-03-25T11:15:49;93750.53;;;10.99;61.95
15050;BME280;7622;42.724;23.250;2024-03-25T11:18:18;93740.66;;;10.15;67.27
15050;BME280;7622;42.724;23.250;2024-03-25T11:20:59;93756.03;;;9.68;84.19
15050;BME280;7622;42.724;23.250;2024-03-25T11:23:25;93748.75;;;8.97;96.70
15050;BME280;7622;42.724;23.250;2024-03-25T11:25:55;93754.81;;;8.80;94.00
15050;BME280;7622;42.724;23.250;2024-03-25T11:28:27;93769.16;;;9.08;95.32
15050;BME280;7622;42.724;23.250;2024-03-25T11:30:52;93762.78;;;9.37;85.72
15050;BME280;7622;42.724;23.250;2024-03-25T11:33:19;93769.34;;;9.89;80.53
15050;BME280;7622;42.724;23.250;2024-03-25T11:35:46;93760.88;;;10.60;73.86
15050;BME280;7622;42.724;23.250;2024-03-25T11:38:12;93744.66;;;10.58;70.41
15050;BME280;7622;42.724;23.250;2024-03-25T11:40:38;93745.38;;;10.36;71.30
15050;BME280;7622;42.724;23.250;2024-03-25T11:43:06;93760.59;;;10.47;68.46
15050;BME280;7622;42.724;23.250;2024-03-25T11:45:32;93765.28;;;11.07;67.42
15050;BME280;7622;42.724;23.250;2024-03-25T11:47:58;93776.28;;;11.25;64.00
15050;BME280;7622;42.724;23.250;2024-03-25T11:50:25;93767.97;;;10.83;63.07
15050;BME280;7622;42.724;23.250;2024-03-25T11:52:51;93769.63;;;11.23;62.26
15050;BME280;7622;42.724;23.250;2024-03-25T11:55:17;93762.13;;;11.28;64.20
15050;BME280;7622;42.724;23.250;2024-03-25T11:57:43;93764.00;;;11.03;60.31
15050;BME280;7622;42.724;23.250;2024-03-25T12:00:09;93732.84;;;10.48;62.81
15050;BME280;7622;42.724;23.250;2024-03-25T12:02:35;93758.81;;;10.07;66.58
15050;BME280;7622;42.724;23.250;2024-03-25T12:05:02;93767.75;;;9.88;67.13
15050;BME280;7622;42.724;23.250;2024-03-25T12:07:29;93779.38;;;9.60;68.38
15050;BME280;7622;42.724;23.250;2024-03-25T12:09:54;93778.06;;;9.56;69.71
15050;BME280;7622;42.724;23.250;2024-03-25T12:12:41;93763.50;;;10.12;67.97
15050;BME280;7622;42.724;23.250;2024-03-25T12:15:07;93761.75;;;10.37;66.24
15050;BME280;7622;42.724;23.250;2024-03-25T12:17:33;93758.00;;;10.15;66.53
15050;BME280;7622;42.724;23.250;2024-03-25T12:20:01;93760.91;;;10.04;68.50
15050;BME280;7622;42.724;23.250;2024-03-25T12:22:30;93749.56;;;10.13;67.60
15050;BME280;7622;42.724;23.250;2024-03-25T12:24:57;93751.84;;;10.24;67.97
15050;BME280;7622;42.724;23.250;2024-03-25T12:27:24;93751.84;;;10.24;65.09
15050;BME280;7622;42.724;23.250;2024-03-25T12:29:57;93752.81;;;10.47;63.67
15050;BME280;7622;42.724;23.250;2024-03-25T12:32:30;93764.59;;;10.66;62.63
15050;BME280;7622;42.724;23.250;2024-03-25T12:34:58;93749.91;;;10.34;64.13
15050;BME280;7622;42.724;23.250;2024-03-25T12:37:26;93760.28;;;10.02;62.89
15050;BME280;7622;42.724;23.250;2024-03-25T12:39:53;93766.47;;;10.17;63.34
15050;BME280;7622;42.724;23.250;2024-03-25T12:42:19;93772.75;;;10.47;62.08
15050;BME280;7622;42.724;23.250;2024-03-25T12:44:45;93783.44;;;10.60;61.12
15050;BME280;7622;42.724;23.250;2024-03-25T12:47:11;93767.50;;;10.79;62.00
15050;BME280;7622;42.724;23.250;2024-03-25T12:49:36;93782.69;;;10.35;64.53
15050;BME280;7622;42.724;23.250;2024-03-25T12:52:05;93777.44;;;9.70;70.74
15050;BME280;7622;42.724;23.250;2024-03-25T12:54:31;93783.81;;;9.34;72.32
15050;BME280;7622;42.724;23.250;2024-03-25T12:56:58;93784.78;;;9.25;71.06
15050;BME280;7622;42.724;23.250;2024-03-25T12:59:24;93785.03;;;9.05;72.65